Time;durP1;ratioP1;P1;durP2;ratioP2;P2;SDS_P1;SDS_P2;PMS_P1;PMS_P2;Temp;Humidity;BMP_temperature;BMP_pressure;BME280_temperature;BME280_humidity;BME280_pressure;Samples;Min_cycle;Max_cycle;Signal;HPM_P1;HPM_P2
2021/07/17 00:00:08;;;;;;;5.28;4.78;;;;;;;;;;4972544;28;20532;-46
2021/07/17 00:02:39;;;;;;;5.90;5.07;;;;;;;;;;4972166;28;20049;-48
2021/07/17 00:05:09;;;;;;;7.05;5.13;;;;;;;;;;4974648;28;20042;-46
2021/07/17 00:07:37;;;;;;;5.03;4.53;;;;;;;;;;4966644;28;20043;-49
2021/07/17 00:10:11;;;;;;;6.80;4.60;;;;;;;;;;4965580;28;20050;-47
2021/07/17 00:12:37;;;;;;;5.80;5.20;;;;;;;;;;4974061;28;20059;-47
2021/07/17 00:15:05;;;;;;;6.72;5.07;;;;;;;;;;4974301;28;20031;-45
2021/07/17 00:17:31;;;;;;;5.72;4.70;;;;;;;;;;4967747;28;20098;-46
2021/07/17 00:19:58;;;;;;;5.32;4.80;;;;;;;;;;4956944;28;20047;-44
2021/07/17 00:22:25;;;;;;;6.43;5.05;;;;;;;;;;4972316;28;20046;-45
2021/07/17 00:24:51;;;;;;;44.75;36.42;;;;;;;;;;4978550;28;20035;-47
2021/07/17 00:27:18;;;;;;;16.70;14.88;;;;;;;;;;4977127;28;20575;-48
2021/07/17 00:29:45;;;;;;;7.32;6.63;;;;;;;;;;4955797;28;20075;-49
2021/07/17 00:32:12;;;;;;;6.72;5.78;;;;;;;;;;4988703;28;20499;-46
2021/07/17 00:34:39;;;;;;;6.53;5.68;;;;;;;;;;4985861;28;20042;-44
2021/07/17 00:37:05;;;;;;;5.93;5.32;;;;;;;;;;4980041;28;20073;-45
2021/07/17 00:39:33;;;;;;;5.70;5.10;;;;;;;;;;4976223;28;20043;-45
2021/07/17 00:42:00;;;;;;;6.70;5.18;;;;;;;;;;4976406;28;20566;-46
2021/07/17 00:44:27;;;;;;;6.88;5.53;;;;;;;;;;4974798;28;20491;-45
2021/07/17 00:46:55;;;;;;;6.80;5.35;;;;;;;;;;4965447;28;20617;-48
2021/07/17 00:49:27;;;;;;;5.82;5.13;;;;;;;;;;4970458;28;20050;-46
2021/07/17 00:51:57;;;;;;;7.82;5.65;;;;;;;;;;4957527;28;20047;-47
2021/07/17 00:54:25;;;;;;;7.38;5.63;;;;;;;;;;4973658;28;20051;-46
2021/07/17 00:56:53;;;;;;;7.00;5.97;;;;;;;;;;4960786;28;20161;-45
2021/07/17 00:59:24;;;;;;;7.55;6.00;;;;;;;;;;4982651;28;20543;-46
2021/07/17 01:02:04;;;;;;;6.60;5.50;;;;;;;;;;4988783;28;20130;-48
2021/07/17 01:04:32;;;;;;;9.60;5.35;;;;;;;;;;4979062;28;20073;-48
2021/07/17 01:06:59;;;;;;;6.45;5.15;;;;;;;;;;4954286;28;20079;-47
2021/07/17 01:09:27;;;;;;;6.07;5.47;;;;;;;;;;4971705;28;20540;-44
2021/07/17 01:11:57;;;;;;;6.05;4.97;;;;;;;;;;4970793;28;20042;-46
2021/07/17 01:14:25;;;;;;;5.40;4.70;;;;;;;;;;4974080;28;20097;-45
2021/07/17 01:16:52;;;;;;;5.68;4.97;;;;;;;;;;4965769;28;20041;-46
2021/07/17 01:19:22;;;;;;;5.93;4.80;;;;;;;;;;4972059;28;20050;-45
2021/07/17 01:21:50;;;;;;;6.32;4.85;;;;;;;;;;4982669;28;20129;-45
2021/07/17 01:24:17;;;;;;;7.60;5.30;;;;;;;;;;4981844;28;20047;-45
2021/07/17 01:26:44;;;;;;;5.68;5.10;;;;;;;;;;4972046;28;20045;-46
2021/07/17 01:29:10;;;;;;;5.95;5.18;;;;;;;;;;4977196;28;20043;-45
2021/07/17 01:31:37;;;;;;;6.45;5.85;;;;;;;;;;4971033;28;20057;-46
2021/07/17 01:34:04;;;;;;;6.35;5.68;;;;;;;;;;4989284;28;20050;-47
2021/07/17 01:36:31;;;;;;;7.72;5.60;;;;;;;;;;4982845;28;20534;-45
2021/07/17 01:38:59;;;;;;;6.97;6.20;;;;;;;;;;4980680;28;20070;-47
2021/07/17 01:41:26;;;;;;;6.57;5.20;;;;;;;;;;4990437;28;20038;-46
2021/07/17 01:43:55;;;;;;;9.48;5.40;;;;;;;;;;4978620;28;20046;-47
2021/07/17 01:46:22;;;;;;;6.38;4.80;;;;;;;;;;4971483;28;20046;-45
2021/07/17 01:48:52;;;;;;;7.18;5.63;;;;;;;;;;4965445;28;20081;-46
2021/07/17 01:51:19;;;;;;;9.68;6.30;;;;;;;;;;4971217;28;20034;-45
2021/07/17 01:53:46;;;;;;;6.50;5.80;;;;;;;;;;4976056;28;20147;-45
2021/07/17 01:56:13;;;;;;;6.80;6.10;;;;;;;;;;4971589;28;20038;-45
2021/07/17 01:58:41;;;;;;;7.18;5.80;;;;;;;;;;4986200;28;20046;-45
2021/07/17 02:01:08;;;;;;;6.45;5.85;;;;;;;;;;4963378;28;20129;-47
2021/07/17 02:03:36;;;;;;;7.43;6.00;;;;;;;;;;4981778;28;20093;-46
2021/07/17 02:06:03;;;;;;;6.63;5.88;;;;;;;;;;4979968;28;20077;-51
2021/07/17 02:08:32;;;;;;;6.25;5.65;;;;;;;;;;4969454;28;20067;-48
2021/07/17 02:10:58;;;;;;;6.90;5.60;;;;;;;;;;4965136;28;20065;-44
2021/07/17 02:13:25;;;;;;;6.95;5.72;;;;;;;;;;4993974;28;20051;-47
2021/07/17 02:15:52;;;;;;;8.38;6.20;;;;;;;;;;4990425;28;20069;-48
2021/07/17 02:18:26;;;;;;;7.78;5.85;;;;;;;;;;4979193;28;20043;-46
2021/07/17 02:20:53;;;;;;;7.75;6.05;;;;;;;;;;4992629;28;20043;-48
2021/07/17 02:23:20;;;;;;;7.05;6.35;;;;;;;;;;4995807;28;20551;-50
2021/07/17 02:25:47;;;;;;;7.03;5.93;;;;;;;;;;4983428;28;20049;-51
2021/07/17 02:28:13;;;;;;;7.30;5.82;;;;;;;;;;4983633;28;20137;-48
2021/07/17 02:30:40;;;;;;;7.50;6.68;;;;;;;;;;4968593;28;20132;-49
2021/07/17 02:33:07;;;;;;;8.55;6.38;;;;;;;;;;4995709;28;20053;-47
2021/07/17 02:35:34;;;;;;;8.95;6.30;;;;;;;;;;4992712;28;20125;-48
2021/07/17 02:38:00;;;;;;;8.88;6.40;;;;;;;;;;4989194;28;20125;-44
2021/07/17 02:40:27;;;;;;;6.90;5.88;;;;;;;;;;4989175;28;20081;-51
2021/07/17 02:42:54;;;;;;;6.78;6.07;;;;;;;;;;4974670;28;20055;-47
2021/07/17 02:45:21;;;;;;;7.30;6.60;;;;;;;;;;4974465;28;20057;-49
2021/07/17 02:47:47;;;;;;;7.72;6.32;;;;;;;;;;4969746;28;20125;-51
2021/07/17 02:50:14;;;;;;;7.45;6.57;;;;;;;;;;4991426;28;20129;-50
2021/07/17 02:52:41;;;;;;;7.28;6.35;;;;;;;;;;4979738;28;20582;-47
2021/07/17 02:55:08;;;;;;;8.13;6.47;;;;;;;;;;4990943;28;20046;-49
2021/07/17 02:57:35;;;;;;;6.43;5.70;;;;;;;;;;4967740;28;20073;-49
2021/07/17 03:00:03;;;;;;;6.68;6.07;;;;;;;;;;4969005;28;20122;-48
2021/07/17 03:02:30;;;;;;;6.85;6.20;;;;;;;;;;4959357;28;20419;-48
2021/07/17 03:04:57;;;;;;;6.90;5.65;;;;;;;;;;4975780;28;20106;-44
2021/07/17 03:07:24;;;;;;;6.43;5.78;;;;;;;;;;4973805;28;20606;-46
2021/07/17 03:09:50;;;;;;;7.30;6.07;;;;;;;;;;4955709;28;20054;-49
2021/07/17 03:12:17;;;;;;;7.43;6.72;;;;;;;;;;4958795;28;20061;-50
2021/07/17 03:14:44;;;;;;;7.68;6.53;;;;;;;;;;4975368;28;20431;-50
2021/07/17 03:17:14;;;;;;;7.03;6.03;;;;;;;;;;4965483;28;20047;-48
2021/07/17 03:19:41;;;;;;;6.78;6.07;;;;;;;;;;4993262;28;20149;-51
2021/07/17 03:22:08;;;;;;;7.00;6.30;;;;;;;;;;4989956;28;20138;-46
2021/07/17 03:24:35;;;;;;;8.15;6.53;;;;;;;;;;4971557;28;20134;-46
2021/07/17 03:27:02;;;;;;;9.05;6.47;;;;;;;;;;4979748;28;20038;-48
2021/07/17 03:29:29;;;;;;;8.88;7.20;;;;;;;;;;4966404;28;20053;-45
2021/07/17 03:31:55;;;;;;;7.93;7.13;;;;;;;;;;4967734;28;20134;-46
2021/07/17 03:34:23;;;;;;;8.00;6.75;;;;;;;;;;4981946;28;20467;-50
2021/07/17 03:36:50;;;;;;;8.00;7.20;;;;;;;;;;4975460;28;20135;-51
2021/07/17 03:39:16;;;;;;;8.18;7.47;;;;;;;;;;4974049;28;20035;-47
2021/07/17 03:41:43;;;;;;;8.80;7.43;;;;;;;;;;4974719;28;20089;-49
2021/07/17 03:44:11;;;;;;;8.77;7.90;;;;;;;;;;4973832;28;20039;-47
2021/07/17 03:46:38;;;;;;;8.32;7.53;;;;;;;;;;4959783;28;20123;-48
2021/07/17 03:49:05;;;;;;;8.38;7.40;;;;;;;;;;4972026;28;20564;-45
2021/07/17 03:51:31;;;;;;;8.88;8.02;;;;;;;;;;4974274;28;20047;-48
2021/07/17 03:53:58;;;;;;;9.25;8.35;;;;;;;;;;4972715;28;20122;-47
2021/07/17 03:56:25;;;;;;;8.63;7.80;;;;;;;;;;4974294;28;20130;-46
2021/07/17 03:58:51;;;;;;;8.48;7.65;;;;;;;;;;4980388;28;20035;-47
2021/07/17 04:01:18;;;;;;;10.63;8.13;;;;;;;;;;4955031;28;20126;-45
2021/07/17 04:03:47;;;;;;;9.75;8.10;;;;;;;;;;4982129;28;20046;-44
2021/07/17 04:06:14;;;;;;;9.65;8.43;;;;;;;;;;4993679;28;20046;-47
2021/07/17 04:08:41;;;;;;;10.20;9.18;;;;;;;;;;4979037;28;20066;-45
2021/07/17 04:11:08;;;;;;;9.68;8.75;;;;;;;;;;4974137;28;20488;-45
2021/07/17 04:13:34;;;;;;;18.35;9.68;;;;;;;;;;4979927;28;20034;-47
2021/07/17 04:16:01;;;;;;;10.15;8.82;;;;;;;;;;4979091;28;20124;-46
2021/07/17 04:18:28;;;;;;;14.35;9.13;;;;;;;;;;4990841;28;20060;-47
2021/07/17 04:20:55;;;;;;;10.10;9.10;;;;;;;;;;4990131;28;20046;-49
2021/07/17 04:23:22;;;;;;;10.00;9.00;;;;;;;;;;4979416;28;20042;-47
2021/07/17 04:25:49;;;;;;;11.43;9.32;;;;;;;;;;4971781;28;20051;-48
2021/07/17 04:28:15;;;;;;;13.55;10.13;;;;;;;;;;4964435;28;20054;-48
2021/07/17 04:30:42;;;;;;;11.85;10.65;;;;;;;;;;4959367;28;21046;-45
2021/07/17 04:33:09;;;;;;;14.45;11.48;;;;;;;;;;4980672;28;20105;-46
2021/07/17 04:35:36;;;;;;;13.02;11.68;;;;;;;;;;4991318;28;20190;-48
2021/07/17 04:38:02;;;;;;;13.02;11.65;;;;;;;;;;4983273;28;20074;-48
2021/07/17 04:40:30;;;;;;;15.73;13.55;;;;;;;;;;4956663;28;20143;-43
2021/07/17 04:42:57;;;;;;;14.20;12.70;;;;;;;;;;4984833;28;20070;-45
2021/07/17 04:45:23;;;;;;;14.98;12.63;;;;;;;;;;4973558;28;20434;-47
2021/07/17 04:47:50;;;;;;;15.52;13.93;;;;;;;;;;4971988;28;20043;-46
2021/07/17 04:50:17;;;;;;;16.92;14.73;;;;;;;;;;4973298;28;20129;-45
2021/07/17 04:52:44;;;;;;;20.00;15.35;;;;;;;;;;4978329;28;20046;-50
2021/07/17 04:55:11;;;;;;;16.48;14.73;;;;;;;;;;4972791;28;20419;-46
2021/07/17 04:57:40;;;;;;;17.70;15.77;;;;;;;;;;4975927;28;20041;-48
2021/07/17 05:00:07;;;;;;;19.45;15.95;;;;;;;;;;4970973;28;20122;-46
2021/07/17 05:02:44;;;;;;;19.67;16.15;;;;;;;;;;4978979;28;20122;-46
2021/07/17 05:05:11;;;;;;;19.88;17.52;;;;;;;;;;4973362;28;20487;-48
2021/07/17 05:07:38;;;;;;;19.75;16.50;;;;;;;;;;4970817;28;20133;-47
2021/07/17 05:10:06;;;;;;;27.55;17.90;;;;;;;;;;4973087;28;20055;-47
2021/07/17 05:12:33;;;;;;;24.27;19.55;;;;;;;;;;4988118;28;20074;-47
2021/07/17 05:14:59;;;;;;;24.67;18.63;;;;;;;;;;4988564;28;20070;-46
2021/07/17 05:17:26;;;;;;;25.65;19.33;;;;;;;;;;4968522;28;20479;-47
2021/07/17 05:19:53;;;;;;;23.88;20.25;;;;;;;;;;4970872;28;20125;-46
2021/07/17 05:22:19;;;;;;;27.77;20.75;;;;;;;;;;4989212;28;20050;-50
2021/07/17 05:24:46;;;;;;;28.08;22.48;;;;;;;;;;4982986;28;20043;-47
2021/07/17 05:27:13;;;;;;;26.00;20.63;;;;;;;;;;4966651;28;20510;-48
2021/07/17 05:29:40;;;;;;;33.05;23.63;;;;;;;;;;4972081;28;20042;-47
2021/07/17 05:32:06;;;;;;;30.85;24.30;;;;;;;;;;4989800;28;20175;-48
2021/07/17 05:34:33;;;;;;;32.70;24.25;;;;;;;;;;4985061;28;20090;-50
2021/07/17 05:37:00;;;;;;;32.92;22.83;;;;;;;;;;4958732;28;20148;-49
2021/07/17 05:39:27;;;;;;;33.30;26.40;;;;;;;;;;4961533;28;20125;-47
2021/07/17 05:41:54;;;;;;;35.63;25.73;;;;;;;;;;4989578;28;20644;-47
2021/07/17 05:44:21;;;;;;;36.40;25.90;;;;;;;;;;4978118;28;20488;-50
2021/07/17 05:46:48;;;;;;;32.47;25.13;;;;;;;;;;4970531;28;20082;-49
2021/07/17 05:49:15;;;;;;;36.97;26.00;;;;;;;;;;4967761;28;20062;-45
2021/07/17 05:51:41;;;;;;;36.38;26.45;;;;;;;;;;4979285;28;20137;-47
2021/07/17 05:54:08;;;;;;;35.28;25.98;;;;;;;;;;4970975;28;20077;-50
2021/07/17 05:56:35;;;;;;;34.85;26.20;;;;;;;;;;4965338;28;20109;-49
2021/07/17 05:59:01;;;;;;;33.20;26.73;;;;;;;;;;4968213;28;20469;-48
2021/07/17 06:01:28;;;;;;;37.22;26.58;;;;;;;;;;4971432;28;20049;-47
2021/07/17 06:03:55;;;;;;;35.83;26.40;;;;;;;;;;4982176;28;20050;-47
2021/07/17 06:06:22;;;;;;;38.53;26.95;;;;;;;;;;4988812;28;20062;-50
2021/07/17 06:08:49;;;;;;;33.55;26.70;;;;;;;;;;4976734;28;20046;-45
2021/07/17 06:11:15;;;;;;;33.78;26.95;;;;;;;;;;4972005;28;20546;-48
2021/07/17 06:13:42;;;;;;;32.50;27.27;;;;;;;;;;4972584;28;20042;-51
2021/07/17 06:16:09;;;;;;;42.80;29.00;;;;;;;;;;4981359;28;20040;-49
2021/07/17 06:18:36;;;;;;;38.25;26.02;;;;;;;;;;4964323;28;20066;-45
2021/07/17 06:21:03;;;;;;;33.90;27.35;;;;;;;;;;4971854;28;20046;-45
2021/07/17 06:23:29;;;;;;;33.33;27.23;;;;;;;;;;4972150;28;20039;-48
2021/07/17 06:25:56;;;;;;;37.28;26.17;;;;;;;;;;4969577;28;20067;-49
2021/07/17 06:28:23;;;;;;;34.83;26.42;;;;;;;;;;4952729;28;20043;-48
2021/07/17 06:30:50;;;;;;;40.05;26.92;;;;;;;;;;4984203;28;20149;-49
2021/07/17 06:33:16;;;;;;;39.97;28.08;;;;;;;;;;4979847;28;20051;-47
2021/07/17 06:35:44;;;;;;;35.63;26.27;;;;;;;;;;4968880;28;20038;-49
2021/07/17 06:38:11;;;;;;;36.10;27.92;;;;;;;;;;4966299;28;20043;-46
2021/07/17 06:40:38;;;;;;;36.78;27.25;;;;;;;;;;4984020;28;20038;-50
2021/07/17 06:43:04;;;;;;;35.92;26.63;;;;;;;;;;4991445;28;20125;-48
2021/07/17 06:45:31;;;;;;;33.58;25.55;;;;;;;;;;4977810;28;20086;-49
2021/07/17 06:47:58;;;;;;;33.95;26.70;;;;;;;;;;4965463;28;20055;-46
2021/07/17 06:50:25;;;;;;;35.80;26.25;;;;;;;;;;4976293;28;20050;-50
2021/07/17 06:52:51;;;;;;;33.47;26.90;;;;;;;;;;4989782;28;20660;-46
2021/07/17 06:55:18;;;;;;;33.38;25.00;;;;;;;;;;4980009;28;20141;-49
2021/07/17 06:57:45;;;;;;;37.55;26.00;;;;;;;;;;4991127;28;20465;-46
2021/07/17 07:00:13;;;;;;;38.53;25.85;;;;;;;;;;4978628;28;20070;-47
2021/07/17 07:02:40;;;;;;;37.22;27.08;;;;;;;;;;4991678;28;20074;-45
2021/07/17 07:05:08;;;;;;;31.50;25.02;;;;;;;;;;4978631;28;20103;-49
2021/07/17 07:07:36;;;;;;;36.67;27.30;;;;;;;;;;4975579;28;20121;-47
2021/07/17 07:10:05;;;;;;;37.63;26.25;;;;;;;;;;4960117;28;20122;-49
2021/07/17 07:12:32;;;;;;;41.97;26.75;;;;;;;;;;4961187;28;20077;-45
2021/07/17 07:14:59;;;;;;;34.95;26.73;;;;;;;;;;4973553;28;20049;-50
2021/07/17 07:17:25;;;;;;;37.38;26.55;;;;;;;;;;4972580;28;20576;-49
2021/07/17 07:19:52;;;;;;;32.60;24.42;;;;;;;;;;4974961;28;20133;-50
2021/07/17 07:22:19;;;;;;;38.17;27.33;;;;;;;;;;4974999;28;20129;-45
2021/07/17 07:24:45;;;;;;;32.90;25.33;;;;;;;;;;4971884;28;20584;-48
2021/07/17 07:27:12;;;;;;;36.83;27.55;;;;;;;;;;4972972;28;20137;-45
2021/07/17 07:29:39;;;;;;;35.95;26.83;;;;;;;;;;4965032;28;20075;-46
2021/07/17 07:32:06;;;;;;;36.10;27.08;;;;;;;;;;4955602;28;20074;-47
2021/07/17 07:34:33;;;;;;;34.85;25.40;;;;;;;;;;4955880;28;20119;-45
2021/07/17 07:36:59;;;;;;;38.10;26.17;;;;;;;;;;4956579;28;20054;-45
2021/07/17 07:39:26;;;;;;;36.50;27.85;;;;;;;;;;4957706;28;20047;-47
2021/07/17 07:41:54;;;;;;;35.35;25.92;;;;;;;;;;4973265;28;20130;-48
2021/07/17 07:44:21;;;;;;;35.38;24.85;;;;;;;;;;4974865;28;20042;-45
2021/07/17 07:46:49;;;;;;;36.20;26.10;;;;;;;;;;4956815;28;20054;-46
2021/07/17 07:49:16;;;;;;;31.55;24.00;;;;;;;;;;4955097;28;20489;-46
2021/07/17 07:51:43;;;;;;;34.45;25.15;;;;;;;;;;4961874;28;20043;-46
2021/07/17 07:54:10;;;;;;;30.80;24.00;;;;;;;;;;4972908;28;20049;-47
2021/07/17 07:56:37;;;;;;;28.95;23.23;;;;;;;;;;4968709;28;20689;-44
2021/07/17 07:59:04;;;;;;;31.55;24.23;;;;;;;;;;4965125;28;20062;-46
2021/07/17 08:01:31;;;;;;;34.15;23.58;;;;;;;;;;4973791;28;20042;-46
2021/07/17 08:03:58;;;;;;;30.00;23.67;;;;;;;;;;4974650;28;20114;-47
2021/07/17 08:06:25;;;;;;;31.20;23.67;;;;;;;;;;4974623;28;20051;-47
2021/07/17 08:08:52;;;;;;;29.13;22.90;;;;;;;;;;4966864;28;20039;-47
2021/07/17 08:11:19;;;;;;;29.35;22.70;;;;;;;;;;4968648;28;20047;-45
2021/07/17 08:13:45;;;;;;;30.23;23.38;;;;;;;;;;4974541;28;20554;-48
2021/07/17 08:16:12;;;;;;;28.98;23.08;;;;;;;;;;4974407;28;20074;-46
2021/07/17 08:18:39;;;;;;;35.72;24.52;;;;;;;;;;4957672;28;20039;-47
2021/07/17 08:21:06;;;;;;;30.77;24.25;;;;;;;;;;4977306;28;20129;-46
2021/07/17 08:23:33;;;;;;;36.58;25.30;;;;;;;;;;4965347;28;20043;-46
2021/07/17 08:26:00;;;;;;;33.25;24.95;;;;;;;;;;4980305;28;20050;-50
2021/07/17 08:28:26;;;;;;;32.38;24.73;;;;;;;;;;4972526;28;20047;-47
2021/07/17 08:30:53;;;;;;;31.67;24.48;;;;;;;;;;4971295;28;20142;-49
2021/07/17 08:33:20;;;;;;;31.90;24.52;;;;;;;;;;4971465;28;20043;-49
2021/07/17 08:35:47;;;;;;;41.28;26.55;;;;;;;;;;4987035;28;20141;-46
2021/07/17 08:38:14;;;;;;;33.30;24.92;;;;;;;;;;4970186;28;20047;-46
2021/07/17 08:40:40;;;;;;;34.90;23.95;;;;;;;;;;4972962;28;20463;-47
2021/07/17 08:43:08;;;;;;;30.63;24.30;;;;;;;;;;4976510;28;20186;-48
2021/07/17 08:45:35;;;;;;;26.38;22.85;;;;;;;;;;4981821;28;20086;-48
2021/07/17 08:48:02;;;;;;;29.65;23.17;;;;;;;;;;4974435;28;20046;-47
2021/07/17 08:50:30;;;;;;;29.48;23.27;;;;;;;;;;4977737;28;20074;-45
2021/07/17 08:52:58;;;;;;;27.23;22.75;;;;;;;;;;4979370;28;20046;-48
2021/07/17 08:55:32;;;;;;;30.50;23.80;;;;;;;;;;4985785;28;20950;-46
2021/07/17 08:57:59;;;;;;;36.40;24.58;;;;;;;;;;4976667;28;20073;-45
2021/07/17 09:00:27;;;;;;;29.98;24.02;;;;;;;;;;4976085;28;20049;-49
2021/07/17 09:02:55;;;;;;;32.15;23.30;;;;;;;;;;4981691;28;20113;-48
2021/07/17 09:05:25;;;;;;;32.05;24.58;;;;;;;;;;4980775;28;20065;-48
2021/07/17 09:07:55;;;;;;;33.35;23.67;;;;;;;;;;4979480;28;20527;-46
2021/07/17 09:10:28;;;;;;;29.15;23.15;;;;;;;;;;4987479;28;20455;-51
2021/07/17 09:13:06;;;;;;;29.75;22.50;;;;;;;;;;4965103;28;20046;-46
2021/07/17 09:15:33;;;;;;;29.38;23.02;;;;;;;;;;4972038;28;20096;-46
2021/07/17 09:18:00;;;;;;;26.40;22.60;;;;;;;;;;4989453;28;20522;-44
2021/07/17 09:20:27;;;;;;;28.08;22.20;;;;;;;;;;4973355;28;20098;-49
2021/07/17 09:22:58;;;;;;;24.63;20.65;;;;;;;;;;4972150;28;20077;-46
2021/07/17 09:25:33;;;;;;;24.88;20.05;;;;;;;;;;4966538;28;20682;-46
2021/07/17 09:28:16;;;;;;;23.95;18.45;;;;;;;;;;4984430;28;20133;-47
2021/07/17 09:30:43;;;;;;;;;;;;;;;;;;4964762;28;20126;-50
2021/07/17 09:33:11;;;;;;;21.08;18.40;;;;;;;;;;4969776;28;19926;-47
2021/07/17 09:35:39;;;;;;;23.38;18.30;;;;;;;;;;4973739;28;20125;-46
2021/07/17 09:38:06;;;;;;;21.65;17.85;;;;;;;;;;4966366;28;20477;-50
2021/07/17 09:40:44;;;;;;;20.40;17.25;;;;;;;;;;4955745;28;20049;-47
2021/07/17 09:43:10;;;;;;;22.17;17.40;;;;;;;;;;4966981;28;20043;-48
2021/07/17 09:45:40;;;;;;;21.55;17.67;;;;;;;;;;4956649;28;20130;-45
2021/07/17 09:48:27;;;;;;;23.55;18.00;;;;;;;;;;4974475;28;20512;-45
2021/07/17 09:50:55;;;;;;;24.58;18.02;;;;;;;;;;4967802;28;20087;-48
2021/07/17 09:53:40;;;;;;;21.73;17.70;;;;;;;;;;4965276;28;20117;-48
2021/07/17 09:56:17;;;;;;;21.42;17.35;;;;;;;;;;4963128;28;20047;-46
2021/07/17 09:58:44;;;;;;;26.05;17.42;;;;;;;;;;4962961;28;20130;-48
2021/07/17 10:01:21;;;;;;;21.38;17.65;;;;;;;;;;4960730;28;20034;-48
2021/07/17 10:03:48;;;;;;;21.77;16.75;;;;;;;;;;4975001;28;20093;-47
2021/07/17 10:06:31;;;;;;;22.27;17.13;;;;;;;;;;4970541;28;20046;-47
2021/07/17 10:09:03;;;;;;;22.00;17.27;;;;;;;;;;4981440;28;20085;-46
2021/07/17 10:11:31;;;;;;;20.83;17.30;;;;;;;;;;4975545;28;20555;-49
2021/07/17 10:14:13;;;;;;;25.70;18.00;;;;;;;;;;4974366;28;20047;-49
2021/07/17 10:16:40;;;;;;;22.17;18.08;;;;;;;;;;4958417;28;20041;-48
2021/07/17 10:19:08;;;;;;;23.13;17.27;;;;;;;;;;4974920;28;20057;-46
2021/07/17 10:21:35;;;;;;;23.92;18.70;;;;;;;;;;4980330;28;20045;-43
2021/07/17 10:24:02;;;;;;;23.63;16.63;;;;;;;;;;4939896;29;20508;-43
2021/07/17 10:26:30;;;;;;;20.30;16.27;;;;;;;;;;4962662;28;20448;-48
2021/07/17 10:29:01;;;;;;;21.50;16.95;;;;;;;;;;4970734;28;20051;-47
2021/07/17 10:31:27;;;;;;;24.23;18.83;;;;;;;;;;4962351;28;20491;-46
2021/07/17 10:33:54;;;;;;;25.73;17.75;;;;;;;;;;4971448;28;20072;-47
2021/07/17 10:36:22;;;;;;;23.25;18.30;;;;;;;;;;4979554;28;20058;-46
2021/07/17 10:38:50;;;;;;;24.05;18.50;;;;;;;;;;4968174;28;20072;-48
2021/07/17 10:41:18;;;;;;;28.13;19.05;;;;;;;;;;4975991;28;20134;-44
2021/07/17 10:43:49;;;;;;;22.30;17.77;;;;;;;;;;4991406;28;20042;-45
2021/07/17 10:46:36;;;;;;;23.80;18.42;;;;;;;;;;4964608;28;20485;-43
2021/07/17 10:49:05;;;;;;;23.83;18.15;;;;;;;;;;4989341;28;20140;-43
2021/07/17 10:51:55;;;;;;;22.55;18.17;;;;;;;;;;4970992;28;20460;-45
2021/07/17 10:54:31;;;;;;;30.63;19.98;;;;;;;;;;4973233;28;20050;-46
2021/07/17 10:56:59;;;;;;;25.75;18.55;;;;;;;;;;4958335;28;20047;-45
2021/07/17 10:59:26;;;;;;;25.45;18.67;;;;;;;;;;4985244;28;20046;-43
2021/07/17 11:01:56;;;;;;;26.67;19.60;;;;;;;;;;4984880;28;20045;-41
2021/07/17 11:04:38;;;;;;;24.50;18.77;;;;;;;;;;4974992;28;20412;-45
2021/07/17 11:07:17;;;;;;;30.27;20.90;;;;;;;;;;4972251;28;20512;-42
2021/07/17 11:09:49;;;;;;;28.30;21.90;;;;;;;;;;4956186;28;20501;-47
2021/07/17 11:12:17;;;;;;;26.87;19.63;;;;;;;;;;4968667;28;20527;-43
2021/07/17 11:14:44;;;;;;;29.02;21.58;;;;;;;;;;4975001;28;20042;-44
2021/07/17 11:17:11;;;;;;;29.95;21.98;;;;;;;;;;4964302;28;20138;-48
2021/07/17 11:19:38;;;;;;;31.90;22.05;;;;;;;;;;4975170;28;20629;-43
2021/07/17 11:22:12;;;;;;;29.05;21.20;;;;;;;;;;4975580;28;20405;-48
2021/07/17 11:24:39;;;;;;;32.22;22.10;;;;;;;;;;4969131;28;20185;-48
2021/07/17 11:27:06;;;;;;;28.38;20.45;;;;;;;;;;4974778;28;20488;-46
2021/07/17 11:29:45;;;;;;;31.33;20.90;;;;;;;;;;4972506;28;20051;-49
2021/07/17 11:32:13;;;;;;;25.83;20.95;;;;;;;;;;4974490;28;20054;-48
2021/07/17 11:34:45;;;;;;;28.38;20.38;;;;;;;;;;4975281;28;20081;-50
2021/07/17 11:37:15;;;;;;;30.13;20.65;;;;;;;;;;4973082;28;20061;-47
2021/07/17 11:39:43;;;;;;;28.30;19.83;;;;;;;;;;4973843;28;20062;-48
2021/07/17 11:42:11;;;;;;;26.77;19.75;;;;;;;;;;4975322;28;20055;-47
2021/07/17 11:44:40;;;;;;;32.88;21.08;;;;;;;;;;4971163;28;20424;-47
2021/07/17 11:47:17;;;;;;;33.50;21.67;;;;;;;;;;4973841;28;20126;-46
2021/07/17 11:49:46;;;;;;;30.33;21.13;;;;;;;;;;4994142;23;20062;-50
2021/07/17 11:52:16;;;;;;;30.30;20.95;;;;;;;;;;4980210;28;20507;-44
2021/07/17 11:54:50;;;;;;;27.15;20.15;;;;;;;;;;4979001;28;20050;-43
2021/07/17 11:57:19;;;;;;;31.10;21.58;;;;;;;;;;4992680;28;20547;-42
2021/07/17 12:00:16;;;;;;;29.00;20.80;;;;;;;;;;4976613;28;20126;-43
2021/07/17 12:02:53;;;;;;;32.30;21.02;;;;;;;;;;4970559;28;20074;-50
2021/07/17 12:05:20;;;;;;;25.60;19.98;;;;;;;;;;4973082;28;20070;-47
2021/07/17 12:07:47;;;;;;;26.48;19.60;;;;;;;;;;4971970;28;20047;-44
2021/07/17 12:10:21;;;;;;;29.20;19.45;;;;;;;;;;4954076;28;20043;-45
2021/07/17 12:12:51;;;;;;;25.38;19.65;;;;;;;;;;4966398;28;20038;-46
2021/07/17 12:15:21;;;;;;;28.58;19.77;;;;;;;;;;4972940;28;20105;-48
2021/07/17 12:17:48;;;;;;;23.98;18.67;;;;;;;;;;4971343;28;20441;-44
2021/07/17 12:20:20;;;;;;;25.02;18.27;;;;;;;;;;4972050;28;20043;-45
2021/07/17 12:22:49;;;;;;;25.63;18.33;;;;;;;;;;4973840;28;20504;-45
2021/07/17 12:25:19;;;;;;;23.23;16.95;;;;;;;;;;4970901;28;20118;-43
2021/07/17 12:27:49;;;;;;;21.48;17.20;;;;;;;;;;4973659;28;20182;-44
2021/07/17 12:30:16;;;;;;;24.08;17.23;;;;;;;;;;4957264;28;20071;-46
2021/07/17 12:33:09;;;;;;;19.45;16.25;;;;;;;;;;4965607;28;20073;-44
2021/07/17 12:35:36;;;;;;;21.13;15.50;;;;;;;;;;4970813;28;20050;-45
2021/07/17 12:38:16;;;;;;;17.95;15.57;;;;;;;;;;4966694;28;20043;-46
2021/07/17 12:40:47;;;;;;;21.23;15.98;;;;;;;;;;4954334;28;20050;-45
2021/07/17 12:43:19;;;;;;;18.80;15.48;;;;;;;;;;4968651;28;20110;-49
2021/07/17 12:45:53;;;;;;;22.63;15.85;;;;;;;;;;4972251;28;20042;-47
2021/07/17 12:48:20;;;;;;;20.52;14.93;;;;;;;;;;4966682;28;20054;-48
2021/07/17 12:50:47;;;;;;;20.15;14.88;;;;;;;;;;4971144;28;20039;-46
2021/07/17 12:53:14;;;;;;;20.38;16.45;;;;;;;;;;4972082;28;20042;-47
2021/07/17 12:55:41;;;;;;;22.30;14.68;;;;;;;;;;4967369;28;20353;-46
2021/07/17 12:58:11;;;;;;;20.70;14.45;;;;;;;;;;4970311;28;20519;-44
2021/07/17 13:00:39;;;;;;;22.27;13.93;;;;;;;;;;4984316;28;20070;-43
2021/07/17 13:03:07;;;;;;;17.05;14.32;;;;;;;;;;4971567;28;20050;-44
2021/07/17 13:05:47;;;;;;;20.45;15.18;;;;;;;;;;4972899;28;20497;-45
2021/07/17 13:08:20;;;;;;;18.35;14.68;;;;;;;;;;4968481;28;20051;-48
2021/07/17 13:10:47;;;;;;;17.33;14.25;;;;;;;;;;4954222;28;20041;-47
2021/07/17 13:13:14;;;;;;;17.30;13.65;;;;;;;;;;4967736;28;20039;-48
2021/07/17 13:15:41;;;;;;;14.68;13.10;;;;;;;;;;4968768;28;20491;-46
2021/07/17 13:18:15;;;;;;;17.42;13.82;;;;;;;;;;4964943;28;20049;-49
2021/07/17 13:20:42;;;;;;;16.92;12.85;;;;;;;;;;4971744;28;20130;-47
2021/07/17 13:23:09;;;;;;;15.52;12.65;;;;;;;;;;4971690;28;20118;-50
2021/07/17 13:25:39;;;;;;;17.98;13.82;;;;;;;;;;4967747;28;20041;-48
2021/07/17 13:28:08;;;;;;;16.83;12.88;;;;;;;;;;4971670;28;20047;-47
2021/07/17 13:30:35;;;;;;;17.50;12.93;;;;;;;;;;4968824;28;20125;-49
2021/07/17 13:33:06;;;;;;;15.35;12.60;;;;;;;;;;4970366;28;20501;-48
2021/07/17 13:35:33;;;;;;;14.20;11.80;;;;;;;;;;4971483;28;20081;-47
2021/07/17 13:38:00;;;;;;;15.20;12.38;;;;;;;;;;4960476;28;20497;-47
2021/07/17 13:40:28;;;;;;;14.00;11.77;;;;;;;;;;4965612;28;20066;-47
2021/07/17 13:42:55;;;;;;;16.40;12.38;;;;;;;;;;4969222;28;20034;-46
2021/07/17 13:45:25;;;;;;;17.85;12.30;;;;;;;;;;4971306;28;20039;-46
2021/07/17 13:47:55;;;;;;;14.15;12.65;;;;;;;;;;4958359;28;20043;-49
2021/07/17 13:50:23;;;;;;;16.38;13.10;;;;;;;;;;4961767;28;20058;-50
2021/07/17 13:52:59;;;;;;;15.13;12.63;;;;;;;;;;4967236;28;20109;-50
2021/07/17 13:55:27;;;;;;;13.90;11.93;;;;;;;;;;4960234;28;20414;-47
2021/07/17 13:58:08;;;;;;;16.00;12.38;;;;;;;;;;4961194;28;20039;-47
2021/07/17 14:00:58;;;;;;;14.40;12.60;;;;;;;;;;4962954;28;20042;-48
2021/07/17 14:03:33;;;;;;;13.65;12.13;;;;;;;;;;4956631;28;20043;-48
2021/07/17 14:06:02;;;;;;;17.30;12.57;;;;;;;;;;4960817;28;20051;-46
2021/07/17 14:08:29;;;;;;;17.25;12.20;;;;;;;;;;4954983;28;20130;-46
2021/07/17 14:10:58;;;;;;;16.40;12.40;;;;;;;;;;4968371;28;20042;-51
2021/07/17 14:13:25;;;;;;;15.45;11.32;;;;;;;;;;4970583;28;20067;-50
2021/07/17 14:15:52;;;;;;;14.13;11.85;;;;;;;;;;4967448;28;20118;-46
2021/07/17 14:18:19;;;;;;;13.98;11.27;;;;;;;;;;4967711;28;20049;-46
2021/07/17 14:20:46;;;;;;;13.38;11.77;;;;;;;;;;4971506;28;20441;-46
2021/07/17 14:23:13;;;;;;;14.90;12.05;;;;;;;;;;4964352;28;20134;-47
2021/07/17 14:25:40;;;;;;;15.90;12.73;;;;;;;;;;4960644;28;20043;-46
2021/07/17 14:28:08;;;;;;;15.52;12.10;;;;;;;;;;4960962;28;20066;-49
2021/07/17 14:30:39;;;;;;;12.35;11.05;;;;;;;;;;4954686;28;20050;-47
2021/07/17 14:33:06;;;;;;;14.30;11.43;;;;;;;;;;4963212;28;20474;-49